sensor_id;sensor_type;location;lat;lon;timestamp;P1;durP1;ratioP1;P2;durP2;ratioP2
59418;SDS011;45224;50.904;6.038;2023-09-12T00:00:07;9.93;;;5.10;;
59418;SDS011;45224;50.904;6.038;2023-09-12T00:01:43;8.57;;;5.25;;
59418;SDS011;45224;50.904;6.038;2023-09-12T00:03:14;7.50;;;5.53;;
59418;SDS011;45224;50.904;6.038;2023-09-12T00:04:44;8.35;;;5.20;;
59418;SDS011;45224;50.904;6.038;2023-09-12T00:06:15;6.40;;;5.00;;
59418;SDS011;45224;50.904;6.038;2023-09-12T00:07:45;10.20;;;5.53;;
59418;SDS011;45224;50.904;6.038;2023-09-12T00:09:16;8.48;;;5.28;;
59418;SDS011;45224;50.904;6.038;2023-09-12T00:10:46;9.27;;;4.82;;
59418;SDS011;45224;50.904;6.038;2023-09-12T00:12:17;9.23;;;5.22;;
59418;SDS011;45224;50.904;6.038;2023-09-12T00:13:47;7.25;;;5.28;;
59418;SDS011;45224;50.904;6.038;2023-09-12T00:15:18;7.55;;;4.85;;
59418;SDS011;45224;50.904;6.038;2023-09-12T00:16:49;8.30;;;4.85;;
59418;SDS011;45224;50.904;6.038;2023-09-12T00:18:22;6.00;;;4.22;;
59418;SDS011;45224;50.904;6.038;2023-09-12T00:19:53;8.95;;;5.25;;
59418;SDS011;45224;50.904;6.038;2023-09-12T00:21:24;8.57;;;4.90;;
59418;SDS011;45224;50.904;6.038;2023-09-12T00:22:54;6.75;;;4.82;;
59418;SDS011;45224;50.904;6.038;2023-09-12T00:24:24;8.55;;;4.82;;
59418;SDS011;45224;50.904;6.038;2023-09-12T00:25:56;7.70;;;4.85;;
59418;SDS011;45224;50.904;6.038;2023-09-12T00:27:27;7.60;;;4.75;;
59418;SDS011;45224;50.904;6.038;2023-09-12T00:28:57;7.35;;;4.80;;
59418;SDS011;45224;50.904;6.038;2023-09-12T00:30:28;9.82;;;5.20;;
59418;SDS011;45224;50.904;6.038;2023-09-12T00:31:58;7.43;;;4.90;;
59418;SDS011;45224;50.904;6.038;2023-09-12T01:09:18;6.30;;;4.20;;
59418;SDS011;45224;50.904;6.038;2023-09-12T01:10:49;8.15;;;4.38;;
59418;SDS011;45224;50.904;6.038;2023-09-12T01:12:23;6.57;;;4.82;;
59418;SDS011;45224;50.904;6.038;2023-09-12T01:13:54;6.85;;;4.65;;
59418;SDS011;45224;50.904;6.038;2023-09-12T01:15:25;7.45;;;4.88;;
59418;SDS011;45224;50.904;6.038;2023-09-12T01:16:56;8.55;;;4.72;;
59418;SDS011;45224;50.904;6.038;2023-09-12T01:18:27;8.65;;;5.15;;
59418;SDS011;45224;50.904;6.038;2023-09-12T01:19:58;6.45;;;4.43;;
59418;SDS011;45224;50.904;6.038;2023-09-12T01:23:54;8.32;;;4.60;;
59418;SDS011;45224;50.904;6.038;2023-09-12T01:25:32;10.55;;;4.63;;
59418;SDS011;45224;50.904;6.038;2023-09-12T01:28:44;11.52;;;5.38;;
59418;SDS011;45224;50.904;6.038;2023-09-12T01:30:17;11.07;;;5.95;;
59418;SDS011;45224;50.904;6.038;2023-09-12T01:31:50;12.23;;;5.20;;
59418;SDS011;45224;50.904;6.038;2023-09-12T01:33:22;10.90;;;5.45;;
59418;SDS011;45224;50.904;6.038;2023-09-12T01:34:53;8.23;;;5.88;;
59418;SDS011;45224;50.904;6.038;2023-09-12T01:36:23;9.52;;;5.80;;
59418;SDS011;45224;50.904;6.038;2023-09-12T01:37:54;12.30;;;5.90;;
59418;SDS011;45224;50.904;6.038;2023-09-12T01:39:24;9.07;;;5.63;;
59418;SDS011;45224;50.904;6.038;2023-09-12T01:40:55;9.18;;;5.43;;
59418;SDS011;45224;50.904;6.038;2023-09-12T01:42:27;8.15;;;5.22;;
59418;SDS011;45224;50.904;6.038;2023-09-12T01:44:01;7.63;;;5.55;;
59418;SDS011;45224;50.904;6.038;2023-09-12T01:45:33;9.32;;;5.40;;
59418;SDS011;45224;50.904;6.038;2023-09-12T01:47:05;8.95;;;5.15;;
59418;SDS011;45224;50.904;6.038;2023-09-12T01:48:36;10.50;;;5.30;;
59418;SDS011;45224;50.904;6.038;2023-09-12T01:50:08;8.32;;;5.00;;
59418;SDS011;45224;50.904;6.038;2023-09-12T01:51:42;7.85;;;5.53;;
59418;SDS011;45224;50.904;6.038;2023-09-12T01:53:13;8.48;;;5.20;;
59418;SDS011;45224;50.904;6.038;2023-09-12T01:54:45;8.63;;;6.05;;
59418;SDS011;45224;50.904;6.038;2023-09-12T01:56:18;9.02;;;5.80;;
59418;SDS011;45224;50.904;6.038;2023-09-12T01:57:50;10.45;;;5.90;;
59418;SDS011;45224;50.904;6.038;2023-09-12T01:59:21;9.98;;;6.05;;
59418;SDS011;45224;50.904;6.038;2023-09-12T02:00:52;8.35;;;5.25;;
59418;SDS011;45224;50.904;6.038;2023-09-12T02:02:24;9.73;;;6.35;;
59418;SDS011;45224;50.904;6.038;2023-09-12T02:03:54;10.25;;;5.95;;
59418;SDS011;45224;50.904;6.038;2023-09-12T02:05:24;8.45;;;5.65;;
59418;SDS011;45224;50.904;6.038;2023-09-12T02:06:56;10.13;;;5.57;;
59418;SDS011;45224;50.904;6.038;2023-09-12T02:08:28;7.47;;;5.50;;
59418;SDS011;45224;50.904;6.038;2023-09-12T02:09:58;9.10;;;5.35;;
59418;SDS011;45224;50.904;6.038;2023-09-12T02:11:30;8.27;;;5.30;;
59418;SDS011;45224;50.904;6.038;2023-09-12T02:13:00;8.35;;;5.20;;
59418;SDS011;45224;50.904;6.038;2023-09-12T02:14:31;13.02;;;5.47;;
59418;SDS011;45224;50.904;6.038;2023-09-12T02:16:01;7.53;;;5.40;;
59418;SDS011;45224;50.904;6.038;2023-09-12T02:17:33;8.15;;;5.45;;
59418;SDS011;45224;50.904;6.038;2023-09-12T02:19:05;7.85;;;4.95;;
59418;SDS011;45224;50.904;6.038;2023-09-12T02:20:38;7.72;;;5.40;;
59418;SDS011;45224;50.904;6.038;2023-09-12T02:22:09;8.75;;;5.45;;
59418;SDS011;45224;50.904;6.038;2023-09-12T02:23:40;9.15;;;5.75;;
59418;SDS011;45224;50.904;6.038;2023-09-12T02:25:11;6.22;;;4.90;;
59418;SDS011;45224;50.904;6.038;2023-09-12T02:26:41;8.50;;;6.03;;
59418;SDS011;45224;50.904;6.038;2023-09-12T02:28:11;9.55;;;5.95;;
59418;SDS011;45224;50.904;6.038;2023-09-12T02:29:42;9.00;;;5.90;;
59418;SDS011;45224;50.904;6.038;2023-09-12T02:31:13;7.50;;;5.57;;
59418;SDS011;45224;50.904;6.038;2023-09-12T02:32:44;9.25;;;5.43;;
59418;SDS011;45224;50.904;6.038;2023-09-12T02:34:14;8.75;;;5.38;;
59418;SDS011;45224;50.904;6.038;2023-09-12T02:35:45;10.55;;;5.90;;
59418;SDS011;45224;50.904;6.038;2023-09-12T02:37:15;8.45;;;5.80;;
59418;SDS011;45224;50.904;6.038;2023-09-12T02:38:46;8.90;;;5.40;;
59418;SDS011;45224;50.904;6.038;2023-09-12T02:40:16;6.72;;;5.13;;
59418;SDS011;45224;50.904;6.038;2023-09-12T02:41:48;9.38;;;5.75;;
59418;SDS011;45224;50.904;6.038;2023-09-12T02:43:18;8.27;;;5.15;;
59418;SDS011;45224;50.904;6.038;2023-09-12T02:44:49;9.95;;;5.57;;
59418;SDS011;45224;50.904;6.038;2023-09-12T02:46:19;9.10;;;6.10;;
59418;SDS011;45224;50.904;6.038;2023-09-12T02:47:50;6.95;;;5.28;;
59418;SDS011;45224;50.904;6.038;2023-09-12T02:49:20;7.45;;;5.10;;
59418;SDS011;45224;50.904;6.038;2023-09-12T02:50:51;10.32;;;5.65;;
59418;SDS011;45224;50.904;6.038;2023-09-12T02:52:21;7.72;;;5.60;;
59418;SDS011;45224;50.904;6.038;2023-09-12T02:53:52;10.45;;;5.28;;
59418;SDS011;45224;50.904;6.038;2023-09-12T02:55:22;8.00;;;5.30;;
59418;SDS011;45224;50.904;6.038;2023-09-12T02:56:53;8.15;;;5.78;;
59418;SDS011;45224;50.904;6.038;2023-09-12T02:58:23;7.22;;;4.75;;
59418;SDS011;45224;50.904;6.038;2023-09-12T02:59:54;7.60;;;5.25;;
59418;SDS011;45224;50.904;6.038;2023-09-12T03:01:24;8.57;;;5.75;;
59418;SDS011;45224;50.904;6.038;2023-09-12T03:02:58;8.18;;;5.53;;
59418;SDS011;45224;50.904;6.038;2023-09-12T03:04:29;7.70;;;5.38;;
59418;SDS011;45224;50.904;6.038;2023-09-12T03:06:00;10.43;;;5.68;;
59418;SDS011;45224;50.904;6.038;2023-09-12T03:07:32;8.93;;;5.38;;
59418;SDS011;45224;50.904;6.038;2023-09-12T03:09:03;9.10;;;5.63;;
59418;SDS011;45224;50.904;6.038;2023-09-12T03:10:34;9.68;;;5.60;;
59418;SDS011;45224;50.904;6.038;2023-09-12T03:12:04;8.95;;;5.68;;
59418;SDS011;45224;50.904;6.038;2023-09-12T03:13:39;7.30;;;5.47;;
59418;SDS011;45224;50.904;6.038;2023-09-12T03:15:10;9.75;;;4.97;;
59418;SDS011;45224;50.904;6.038;2023-09-12T03:16:41;9.55;;;5.90;;
59418;SDS011;45224;50.904;6.038;2023-09-12T03:18:11;11.52;;;6.60;;
59418;SDS011;45224;50.904;6.038;2023-09-12T03:19:42;7.72;;;5.65;;
59418;SDS011;45224;50.904;6.038;2023-09-12T03:21:12;8.43;;;5.65;;
59418;SDS011;45224;50.904;6.038;2023-09-12T03:22:43;12.23;;;5.57;;
59418;SDS011;45224;50.904;6.038;2023-09-12T03:24:15;7.90;;;5.82;;
59418;SDS011;45224;50.904;6.038;2023-09-12T03:25:48;7.53;;;4.93;;
59418;SDS011;45224;50.904;6.038;2023-09-12T03:27:19;10.35;;;5.57;;
59418;SDS011;45224;50.904;6.038;2023-09-12T03:28:50;8.65;;;5.35;;
59418;SDS011;45224;50.904;6.038;2023-09-12T03:30:21;9.40;;;5.90;;
59418;SDS011;45224;50.904;6.038;2023-09-12T03:31:52;9.00;;;5.75;;
59418;SDS011;45224;50.904;6.038;2023-09-12T03:33:22;9.13;;;5.97;;
59418;SDS011;45224;50.904;6.038;2023-09-12T03:34:53;8.45;;;5.10;;
59418;SDS011;45224;50.904;6.038;2023-09-12T03:36:23;9.25;;;5.38;;
59418;SDS011;45224;50.904;6.038;2023-09-12T03:37:54;8.77;;;5.45;;
59418;SDS011;45224;50.904;6.038;2023-09-12T03:39:24;7.75;;;5.43;;
59418;SDS011;45224;50.904;6.038;2023-09-12T03:40:55;8.63;;;5.65;;
59418;SDS011;45224;50.904;6.038;2023-09-12T03:42:25;8.60;;;6.07;;
59418;SDS011;45224;50.904;6.038;2023-09-12T03:43:56;9.05;;;5.82;;
59418;SDS011;45224;50.904;6.038;2023-09-12T03:45:26;9.93;;;6.07;;
59418;SDS011;45224;50.904;6.038;2023-09-12T03:46:57;9.85;;;5.90;;
59418;SDS011;45224;50.904;6.038;2023-09-12T03:48:29;9.57;;;5.88;;
59418;SDS011;45224;50.904;6.038;2023-09-12T03:50:03;10.80;;;6.82;;
59418;SDS011;45224;50.904;6.038;2023-09-12T03:51:34;11.25;;;7.20;;
59418;SDS011;45224;50.904;6.038;2023-09-12T03:53:05;10.07;;;7.07;;
59418;SDS011;45224;50.904;6.038;2023-09-12T03:54:35;11.82;;;6.53;;
59418;SDS011;45224;50.904;6.038;2023-09-12T03:56:06;11.50;;;6.68;;
59418;SDS011;45224;50.904;6.038;2023-09-12T03:57:36;10.15;;;7.00;;
59418;SDS011;45224;50.904;6.038;2023-09-12T03:59:07;11.90;;;7.55;;
59418;SDS011;45224;50.904;6.038;2023-09-12T04:00:37;11.50;;;7.07;;
59418;SDS011;45224;50.904;6.038;2023-09-12T04:02:08;11.70;;;6.50;;
59418;SDS011;45224;50.904;6.038;2023-09-12T04:03:38;9.40;;;6.40;;
59418;SDS011;45224;50.904;6.038;2023-09-12T04:05:09;11.38;;;6.40;;
59418;SDS011;45224;50.904;6.038;2023-09-12T04:06:40;11.32;;;6.72;;
59418;SDS011;45224;50.904;6.038;2023-09-12T04:08:11;10.15;;;6.82;;
59418;SDS011;45224;50.904;6.038;2023-09-12T04:09:41;11.52;;;6.72;;
59418;SDS011;45224;50.904;6.038;2023-09-12T04:11:12;9.32;;;6.28;;
59418;SDS011;45224;50.904;6.038;2023-09-12T04:12:43;9.88;;;6.25;;
59418;SDS011;45224;50.904;6.038;2023-09-12T04:14:13;12.48;;;7.60;;
59418;SDS011;45224;50.904;6.038;2023-09-12T04:15:44;12.38;;;7.40;;
59418;SDS011;45224;50.904;6.038;2023-09-12T04:17:15;11.80;;;7.50;;
59418;SDS011;45224;50.904;6.038;2023-09-12T04:18:45;15.50;;;7.88;;
59418;SDS011;45224;50.904;6.038;2023-09-12T04:20:16;12.27;;;8.48;;
59418;SDS011;45224;50.904;6.038;2023-09-12T04:21:46;12.95;;;7.80;;
59418;SDS011;45224;50.904;6.038;2023-09-12T04:23:17;12.90;;;8.35;;
59418;SDS011;45224;50.904;6.038;2023-09-12T04:24:47;12.40;;;8.02;;
59418;SDS011;45224;50.904;6.038;2023-09-12T04:26:18;11.38;;;7.40;;
59418;SDS011;45224;50.904;6.038;2023-09-12T04:27:48;11.45;;;7.32;;
59418;SDS011;45224;50.904;6.038;2023-09-12T04:29:19;15.52;;;8.07;;
59418;SDS011;45224;50.904;6.038;2023-09-12T04:30:49;14.98;;;7.93;;
59418;SDS011;45224;50.904;6.038;2023-09-12T04:32:20;11.50;;;7.55;;
59418;SDS011;45224;50.904;6.038;2023-09-12T04:33:53;9.70;;;7.05;;
59418;SDS011;45224;50.904;6.038;2023-09-12T04:35:24;14.20;;;7.72;;
59418;SDS011;45224;50.904;6.038;2023-09-12T04:36:55;13.25;;;7.95;;
59418;SDS011;45224;50.904;6.038;2023-09-12T04:38:26;11.63;;;7.90;;
59418;SDS011;45224;50.904;6.038;2023-09-12T04:39:57;13.85;;;8.48;;
59418;SDS011;45224;50.904;6.038;2023-09-12T04:41:28;12.27;;;7.22;;
59418;SDS011;45224;50.904;6.038;2023-09-12T04:42:58;17.23;;;8.00;;
59418;SDS011;45224;50.904;6.038;2023-09-12T04:44:31;13.60;;;7.88;;
59418;SDS011;45224;50.904;6.038;2023-09-12T04:46:05;12.40;;;7.82;;
59418;SDS011;45224;50.904;6.038;2023-09-12T04:47:35;12.45;;;8.13;;
59418;SDS011;45224;50.904;6.038;2023-09-12T04:49:06;13.13;;;7.90;;
59418;SDS011;45224;50.904;6.038;2023-09-12T04:50:42;18.38;;;8.40;;
59418;SDS011;45224;50.904;6.038;2023-09-12T04:52:13;11.93;;;7.80;;
59418;SDS011;45224;50.904;6.038;2023-09-12T04:53:43;13.38;;;8.10;;
59418;SDS011;45224;50.904;6.038;2023-09-12T04:55:14;15.32;;;8.70;;
59418;SDS011;45224;50.904;6.038;2023-09-12T04:56:45;16.00;;;8.43;;
59418;SDS011;45224;50.904;6.038;2023-09-12T04:58:15;15.45;;;8.48;;
59418;SDS011;45224;50.904;6.038;2023-09-12T04:59:46;15.57;;;8.75;;
59418;SDS011;45224;50.904;6.038;2023-09-12T05:01:16;16.67;;;9.18;;
59418;SDS011;45224;50.904;6.038;2023-09-12T05:02:47;16.80;;;9.38;;
59418;SDS011;45224;50.904;6.038;2023-09-12T05:04:17;16.58;;;9.48;;
59418;SDS011;45224;50.904;6.038;2023-09-12T05:05:48;15.02;;;9.88;;
59418;SDS011;45224;50.904;6.038;2023-09-12T05:07:22;16.50;;;8.85;;
59418;SDS011;45224;50.904;6.038;2023-09-12T05:08:53;17.75;;;9.95;;
59418;SDS011;45224;50.904;6.038;2023-09-12T05:10:23;17.15;;;9.60;;
59418;SDS011;45224;50.904;6.038;2023-09-12T05:11:54;16.15;;;9.48;;
59418;SDS011;45224;50.904;6.038;2023-09-12T05:13:24;18.67;;;9.73;;
59418;SDS011;45224;50.904;6.038;2023-09-12T05:14:55;17.75;;;9.52;;
59418;SDS011;45224;50.904;6.038;2023-09-12T05:16:25;14.57;;;9.48;;
59418;SDS011;45224;50.904;6.038;2023-09-12T05:17:56;15.60;;;8.77;;
59418;SDS011;45224;50.904;6.038;2023-09-12T05:19:26;15.95;;;8.38;;
59418;SDS011;45224;50.904;6.038;2023-09-12T05:20:57;16.83;;;8.45;;
59418;SDS011;45224;50.904;6.038;2023-09-12T05:22:28;15.45;;;8.15;;
59418;SDS011;45224;50.904;6.038;2023-09-12T05:23:59;17.45;;;9.57;;
59418;SDS011;45224;50.904;6.038;2023-09-12T05:25:29;12.98;;;8.32;;
59418;SDS011;45224;50.904;6.038;2023-09-12T05:27:00;12.80;;;8.75;;
59418;SDS011;45224;50.904;6.038;2023-09-12T05:28:31;12.60;;;8.63;;
59418;SDS011;45224;50.904;6.038;2023-09-12T05:30:01;15.43;;;8.27;;
59418;SDS011;45224;50.904;6.038;2023-09-12T05:31:33;13.43;;;8.00;;
59418;SDS011;45224;50.904;6.038;2023-09-12T05:33:03;12.88;;;8.10;;
59418;SDS011;45224;50.904;6.038;2023-09-12T05:34:34;12.57;;;8.20;;
59418;SDS011;45224;50.904;6.038;2023-09-12T05:36:04;11.90;;;7.82;;
59418;SDS011;45224;50.904;6.038;2023-09-12T05:37:35;11.10;;;7.75;;
59418;SDS011;45224;50.904;6.038;2023-09-12T05:39:05;12.45;;;8.27;;
59418;SDS011;45224;50.904;6.038;2023-09-12T05:40:36;12.50;;;8.02;;
59418;SDS011;45224;50.904;6.038;2023-09-12T05:42:07;13.80;;;8.82;;
59418;SDS011;45224;50.904;6.038;2023-09-12T05:43:37;15.63;;;8.68;;
59418;SDS011;45224;50.904;6.038;2023-09-12T05:45:08;13.98;;;8.98;;
59418;SDS011;45224;50.904;6.038;2023-09-12T05:46:39;14.13;;;8.27;;
59418;SDS011;45224;50.904;6.038;2023-09-12T05:48:09;12.93;;;8.52;;
59418;SDS011;45224;50.904;6.038;2023-09-12T05:49:41;15.55;;;8.95;;
59418;SDS011;45224;50.904;6.038;2023-09-12T05:51:11;14.30;;;9.27;;
59418;SDS011;45224;50.904;6.038;2023-09-12T05:52:42;12.70;;;8.73;;
59418;SDS011;45224;50.904;6.038;2023-09-12T05:54:14;13.55;;;8.93;;
59418;SDS011;45224;50.904;6.038;2023-09-12T05:55:45;15.10;;;8.48;;
59418;SDS011;45224;50.904;6.038;2023-09-12T05:57:16;14.70;;;9.05;;
59418;SDS011;45224;50.904;6.038;2023-09-12T05:58:46;12.35;;;8.15;;
59418;SDS011;45224;50.904;6.038;2023-09-12T06:00:17;15.35;;;9.55;;
59418;SDS011;45224;50.904;6.038;2023-09-12T06:01:48;16.98;;;9.15;;
59418;SDS011;45224;50.904;6.038;2023-09-12T06:03:19;14.43;;;8.82;;
59418;SDS011;45224;50.904;6.038;2023-09-12T06:04:49;12.93;;;8.90;;
59418;SDS011;45224;50.904;6.038;2023-09-12T06:06:20;14.05;;;8.88;;
59418;SDS011;45224;50.904;6.038;2023-09-12T06:07:50;17.17;;;10.02;;
59418;SDS011;45224;50.904;6.038;2023-09-12T06:09:21;18.65;;;10.27;;
59418;SDS011;45224;50.904;6.038;2023-09-12T06:10:51;14.80;;;9.63;;
59418;SDS011;45224;50.904;6.038;2023-09-12T06:12:23;15.15;;;9.02;;
59418;SDS011;45224;50.904;6.038;2023-09-12T06:13:54;14.80;;;8.77;;
59418;SDS011;45224;50.904;6.038;2023-09-12T06:15:24;15.48;;;9.80;;
59418;SDS011;45224;50.904;6.038;2023-09-12T06:16:55;14.35;;;9.27;;
59418;SDS011;45224;50.904;6.038;2023-09-12T06:18:25;12.95;;;9.25;;
59418;SDS011;45224;50.904;6.038;2023-09-12T06:19:58;13.23;;;8.95;;
59418;SDS011;45224;50.904;6.038;2023-09-12T06:21:29;18.60;;;10.10;;
59418;SDS011;45224;50.904;6.038;2023-09-12T06:22:59;18.08;;;9.30;;
59418;SDS011;45224;50.904;6.038;2023-09-12T06:24:30;16.25;;;9.75;;
59418;SDS011;45224;50.904;6.038;2023-09-12T06:26:00;17.08;;;9.98;;
59418;SDS011;45224;50.904;6.038;2023-09-12T06:27:31;17.05;;;10.85;;
59418;SDS011;45224;50.904;6.038;2023-09-12T06:29:01;19.48;;;11.05;;
59418;SDS011;45224;50.904;6.038;2023-09-12T06:30:32;15.40;;;9.80;;
59418;SDS011;45224;50.904;6.038;2023-09-12T06:32:03;18.70;;;11.18;;
59418;SDS011;45224;50.904;6.038;2023-09-12T06:33:34;19.48;;;11.65;;
59418;SDS011;45224;50.904;6.038;2023-09-12T06:35:04;17.90;;;10.73;;
59418;SDS011;45224;50.904;6.038;2023-09-12T06:36:35;20.38;;;10.70;;
59418;SDS011;45224;50.904;6.038;2023-09-12T06:38:06;18.45;;;11.65;;
59418;SDS011;45224;50.904;6.038;2023-09-12T06:39:36;19.30;;;11.93;;
59418;SDS011;45224;50.904;6.038;2023-09-12T06:41:06;18.38;;;11.15;;
59418;SDS011;45224;50.904;6.038;2023-09-12T06:42:37;30.20;;;17.35;;
59418;SDS011;45224;50.904;6.038;2023-09-12T06:44:07;17.73;;;12.27;;
59418;SDS011;45224;50.904;6.038;2023-09-12T06:45:38;20.50;;;12.05;;
59418;SDS011;45224;50.904;6.038;2023-09-12T06:47:10;24.75;;;15.07;;
59418;SDS011;45224;50.904;6.038;2023-09-12T06:48:40;16.23;;;10.48;;
59418;SDS011;45224;50.904;6.038;2023-09-12T06:50:11;20.80;;;12.35;;
59418;SDS011;45224;50.904;6.038;2023-09-12T06:51:41;17.50;;;11.57;;
59418;SDS011;45224;50.904;6.038;2023-09-12T06:53:12;17.02;;;11.25;;
59418;SDS011;45224;50.904;6.038;2023-09-12T06:54:42;19.83;;;11.05;;
59418;SDS011;45224;50.904;6.038;2023-09-12T06:56:13;16.60;;;10.98;;
59418;SDS011;45224;50.904;6.038;2023-09-12T06:57:43;17.75;;;10.38;;
59418;SDS011;45224;50.904;6.038;2023-09-12T06:59:15;17.75;;;10.75;;
59418;SDS011;45224;50.904;6.038;2023-09-12T07:00:45;16.48;;;10.25;;
59418;SDS011;45224;50.904;6.038;2023-09-12T07:02:16;15.75;;;10.38;;
59418;SDS011;45224;50.904;6.038;2023-09-12T07:03:48;16.08;;;9.68;;
59418;SDS011;45224;50.904;6.038;2023-09-12T07:05:18;19.70;;;11.48;;
59418;SDS011;45224;50.904;6.038;2023-09-12T07:06:49;16.45;;;10.65;;
59418;SDS011;45224;50.904;6.038;2023-09-12T07:08:21;17.02;;;10.50;;
59418;SDS011;45224;50.904;6.038;2023-09-12T07:09:51;16.90;;;11.23;;
59418;SDS011;45224;50.904;6.038;2023-09-12T07:11:22;19.00;;;12.05;;
59418;SDS011;45224;50.904;6.038;2023-09-12T07:12:54;15.27;;;10.18;;
59418;SDS011;45224;50.904;6.038;2023-09-12T07:14:24;17.70;;;10.43;;
59418;SDS011;45224;50.904;6.038;2023-09-12T07:15:56;15.07;;;9.75;;
59418;SDS011;45224;50.904;6.038;2023-09-12T07:17:29;16.08;;;9.63;;
59418;SDS011;45224;50.904;6.038;2023-09-12T07:19:00;16.67;;;9.20;;
59418;SDS011;45224;50.904;6.038;2023-09-12T07:20:30;14.48;;;9.18;;
59418;SDS011;45224;50.904;6.038;2023-09-12T07:22:01;15.23;;;9.25;;
59418;SDS011;45224;50.904;6.038;2023-09-12T07:23:31;15.90;;;9.02;;
59418;SDS011;45224;50.904;6.038;2023-09-12T07:25:02;13.85;;;8.65;;
59418;SDS011;45224;50.904;6.038;2023-09-12T07:26:33;13.40;;;9.57;;
59418;SDS011;45224;50.904;6.038;2023-09-12T07:28:03;14.57;;;9.52;;
59418;SDS011;45224;50.904;6.038;2023-09-12T07:29:34;14.77;;;9.95;;
59418;SDS011;45224;50.904;6.038;2023-09-12T07:31:04;13.57;;;9.55;;
59418;SDS011;45224;50.904;6.038;2023-09-12T07:32:35;15.60;;;9.90;;
59418;SDS011;45224;50.904;6.038;2023-09-12T07:34:05;16.13;;;10.25;;
59418;SDS011;45224;50.904;6.038;2023-09-12T07:35:36;15.85;;;10.50;;
59418;SDS011;45224;50.904;6.038;2023-09-12T07:37:06;17.67;;;11.25;;
59418;SDS011;45224;50.904;6.038;2023-09-12T07:38:36;14.75;;;9.93;;
59418;SDS011;45224;50.904;6.038;2023-09-12T07:40:08;17.75;;;11.30;;
59418;SDS011;45224;50.904;6.038;2023-09-12T07:41:40;13.57;;;9.25;;
59418;SDS011;45224;50.904;6.038;2023-09-12T07:43:10;17.60;;;11.02;;
59418;SDS011;45224;50.904;6.038;2023-09-12T07:44:41;19.38;;;11.13;;
59418;SDS011;45224;50.904;6.038;2023-09-12T07:46:11;21.30;;;12.15;;
59418;SDS011;45224;50.904;6.038;2023-09-12T07:47:42;20.13;;;12.10;;
59418;SDS011;45224;50.904;6.038;2023-09-12T07:49:12;16.42;;;10.75;;
59418;SDS011;45224;50.904;6.038;2023-09-12T07:50:43;17.20;;;12.05;;
59418;SDS011;45224;50.904;6.038;2023-09-12T07:52:13;15.85;;;11.20;;
59418;SDS011;45224;50.904;6.038;2023-09-12T07:53:44;14.98;;;10.18;;
59418;SDS011;45224;50.904;6.038;2023-09-12T07:55:14;13.25;;;9.32;;
59418;SDS011;45224;50.904;6.038;2023-09-12T07:56:45;14.65;;;9.50;;
59418;SDS011;45224;50.904;6.038;2023-09-12T07:58:16;17.92;;;9.85;;
59418;SDS011;45224;50.904;6.038;2023-09-12T07:59:48;11.75;;;9.13;;
59418;SDS011;45224;50.904;6.038;2023-09-12T08:01:19;15.48;;;8.98;;
59418;SDS011;45224;50.904;6.038;2023-09-12T08:02:49;14.77;;;10.25;;
59418;SDS011;45224;50.904;6.038;2023-09-12T08:04:20;14.15;;;9.65;;
59418;SDS011;45224;50.904;6.038;2023-09-12T08:05:56;13.80;;;10.27;;
59418;SDS011;45224;50.904;6.038;2023-09-12T08:07:27;13.30;;;9.07;;
59418;SDS011;45224;50.904;6.038;2023-09-12T08:08:58;12.65;;;10.23;;
59418;SDS011;45224;50.904;6.038;2023-09-12T08:10:29;12.35;;;9.32;;
59418;SDS011;45224;50.904;6.038;2023-09-12T08:11:59;12.35;;;9.27;;
59418;SDS011;45224;50.904;6.038;2023-09-12T08:13:30;11.75;;;8.30;;
59418;SDS011;45224;50.904;6.038;2023-09-12T08:15:01;12.48;;;9.57;;
59418;SDS011;45224;50.904;6.038;2023-09-12T08:16:32;12.40;;;9.30;;
59418;SDS011;45224;50.904;6.038;2023-09-12T08:18:03;11.40;;;8.82;;
59418;SDS011;45224;50.904;6.038;2023-09-12T08:19:34;13.23;;;8.82;;
59418;SDS011;45224;50.904;6.038;2023-09-12T08:21:04;14.13;;;9.20;;
59418;SDS011;45224;50.904;6.038;2023-09-12T08:22:35;15.40;;;9.93;;
59418;SDS011;45224;50.904;6.038;2023-09-12T08:24:06;12.10;;;9.60;;
59418;SDS011;45224;50.904;6.038;2023-09-12T08:25:37;12.73;;;9.25;;
59418;SDS011;45224;50.904;6.038;2023-09-12T08:27:07;13.05;;;9.52;;
59418;SDS011;45224;50.904;6.038;2023-09-12T08:28:39;12.73;;;9.68;;
59418;SDS011;45224;50.904;6.038;2023-09-12T08:30:11;12.60;;;8.48;;
59418;SDS011;45224;50.904;6.038;2023-09-12T08:31:42;12.18;;;8.85;;
59418;SDS011;45224;50.904;6.038;2023-09-12T08:33:14;12.73;;;9.18;;
59418;SDS011;45224;50.904;6.038;2023-09-12T08:34:45;11.20;;;8.73;;
59418;SDS011;45224;50.904;6.038;2023-09-12T08:36:15;10.50;;;7.80;;
59418;SDS011;45224;50.904;6.038;2023-09-12T08:37:46;12.50;;;8.57;;
59418;SDS011;45224;50.904;6.038;2023-09-12T08:39:18;13.13;;;8.20;;
59418;SDS011;45224;50.904;6.038;2023-09-12T08:40:54;13.23;;;9.20;;
59418;SDS011;45224;50.904;6.038;2023-09-12T08:42:25;11.88;;;8.57;;
59418;SDS011;45224;50.904;6.038;2023-09-12T08:44:00;11.85;;;8.73;;
59418;SDS011;45224;50.904;6.038;2023-09-12T08:45:31;11.88;;;8.73;;
59418;SDS011;45224;50.904;6.038;2023-09-12T08:47:02;13.70;;;9.13;;
59418;SDS011;45224;50.904;6.038;2023-09-12T08:48:35;12.38;;;8.02;;
59418;SDS011;45224;50.904;6.038;2023-09-12T08:50:11;10.73;;;7.47;;
59418;SDS011;45224;50.904;6.038;2023-09-12T08:51:43;10.50;;;7.75;;
59418;SDS011;45224;50.904;6.038;2023-09-12T08:53:14;10.40;;;8.10;;
59418;SDS011;45224;50.904;6.038;2023-09-12T08:54:45;11.40;;;7.70;;
59418;SDS011;45224;50.904;6.038;2023-09-12T08:56:16;10.82;;;8.13;;
59418;SDS011;45224;50.904;6.038;2023-09-12T08:57:50;11.00;;;7.85;;
59418;SDS011;45224;50.904;6.038;2023-09-12T08:59:21;10.65;;;6.80;;
59418;SDS011;45224;50.904;6.038;2023-09-12T09:00:52;10.02;;;6.88;;
59418;SDS011;45224;50.904;6.038;2023-09-12T09:02:22;11.38;;;6.72;;
59418;SDS011;45224;50.904;6.038;2023-09-12T09:03:53;10.15;;;7.30;;
59418;SDS011;45224;50.904;6.038;2023-09-12T09:05:23;9.10;;;6.47;;
59418;SDS011;45224;50.904;6.038;2023-09-12T09:06:55;11.15;;;6.95;;
59418;SDS011;45224;50.904;6.038;2023-09-12T09:08:27;8.93;;;6.57;;
59418;SDS011;45224;50.904;6.038;2023-09-12T09:10:01;7.38;;;6.10;;
59418;SDS011;45224;50.904;6.038;2023-09-12T09:11:35;8.95;;;6.30;;
59418;SDS011;45224;50.904;6.038;2023-09-12T09:13:05;9.70;;;6.60;;
59418;SDS011;45224;50.904;6.038;2023-09-12T09:14:36;7.18;;;5.72;;
59418;SDS011;45224;50.904;6.038;2023-09-12T09:17:42;8.38;;;6.65;;
59418;SDS011;45224;50.904;6.038;2023-09-12T09:19:12;7.78;;;5.80;;
59418;SDS011;45224;50.904;6.038;2023-09-12T09:20:43;10.55;;;5.80;;
59418;SDS011;45224;50.904;6.038;2023-09-12T09:22:19;7.35;;;5.28;;
59418;SDS011;45224;50.904;6.038;2023-09-12T09:23:50;6.10;;;4.72;;
59418;SDS011;45224;50.904;6.038;2023-09-12T09:25:21;8.32;;;4.60;;
59418;SDS011;45224;50.904;6.038;2023-09-12T09:26:51;7.30;;;5.35;;
59418;SDS011;45224;50.904;6.038;2023-09-12T09:28:29;8.63;;;5.00;;
59418;SDS011;45224;50.904;6.038;2023-09-12T09:29:59;6.07;;;4.90;;
59418;SDS011;45224;50.904;6.038;2023-09-12T09:31:30;6.72;;;4.30;;
59418;SDS011;45224;50.904;6.038;2023-09-12T09:33:02;7.25;;;4.13;;
59418;SDS011;45224;50.904;6.038;2023-09-12T09:34:33;5.45;;;4.03;;
59418;SDS011;45224;50.904;6.038;2023-09-12T09:36:09;6.43;;;4.30;;
59418;SDS011;45224;50.904;6.038;2023-09-12T09:37:41;6.25;;;4.38;;
59418;SDS011;45224;50.904;6.038;2023-09-12T09:39:12;7.10;;;4.47;;
59418;SDS011;45224;50.904;6.038;2023-09-12T09:40:43;6.22;;;4.43;;
59418;SDS011;45224;50.904;6.038;2023-09-12T09:42:14;7.03;;;4.78;;
59418;SDS011;45224;50.904;6.038;2023-09-12T09:43:44;6.15;;;4.45;;